Time;durP1;ratioP1;P1;durP2;ratioP2;P2;SDS_P1;SDS_P2;PMS_P1;PMS_P2;Temp;Humidity;BMP_temperature;BMP_pressure;BME280_temperature;BME280_humidity;BME280_pressure;Samples;Min_cycle;Max_cycle;Signal;HPM_P1;HPM_P2
2023/07/05 00:00:07;;;;;;;2.10;2.10;;;;;;;21.86;95.59;96876.25;4964878;28;20489;-62
2023/07/05 00:02:34;;;;;;;2.20;2.20;;;;;;;21.86;96.37;96879.06;4979537;28;20924;-62
2023/07/05 00:05:01;;;;;;;2.33;2.30;;;;;;;21.76;96.79;96868.91;4964624;28;20057;-63
2023/07/05 00:07:28;;;;;;;2.25;2.25;;;;;;;21.70;95.21;96864.22;4979496;28;20058;-63
2023/07/05 00:09:54;;;;;;;2.60;2.50;;;;;;;20.44;95.41;96668.63;4964883;28;20058;-62
2023/07/05 00:12:21;;;;;;;2.13;2.13;;;;;;;21.44;95.18;96818.28;4964453;28;20266;-62
2023/07/05 00:14:48;;;;;;;2.20;2.20;;;;;;;21.75;95.51;96872.94;4964383;28;20050;-62
2023/07/05 00:17:15;;;;;;;2.20;2.20;;;;;;;21.66;96.69;96853.06;4964640;28;20530;-64
2023/07/05 00:19:41;;;;;;;2.35;2.28;;;;;;;21.77;96.58;96847.91;4964524;28;20055;-63
2023/07/05 00:22:08;;;;;;;2.55;2.45;;;;;;;21.55;95.97;96821.56;4964457;28;20078;-63
2023/07/05 00:24:35;;;;;;;2.50;2.40;;;;;;;21.81;96.03;96859.91;4964734;28;20099;-63
2023/07/05 00:27:02;;;;;;;2.22;2.22;;;;;;;21.68;95.44;96850.59;4964911;28;20050;-64
2023/07/05 00:29:29;;;;;;;2.20;2.20;;;;;;;21.82;94.45;96861.47;4964426;28;20273;-62
2023/07/05 00:31:56;;;;;;;2.20;2.20;;;;;;;21.57;93.94;96818.28;4964630;28;20517;-62
2023/07/05 00:34:22;;;;;;;2.20;2.20;;;;;;;21.75;94.35;96867.31;4967259;28;20054;-61
2023/07/05 00:36:49;;;;;;;2.28;2.28;;;;;;;21.18;94.07;96765.13;4967076;28;20058;-62
2023/07/05 00:39:16;;;;;;;2.25;2.25;;;;;;;21.51;94.52;96820.91;4968563;28;20054;-62
2023/07/05 00:41:42;;;;;;;2.70;2.60;;;;;;;21.58;94.00;96840.41;4968091;28;20059;-62
2023/07/05 00:44:13;;;;;;;2.22;2.22;;;;;;;21.23;95.46;96830.13;4967943;28;20051;-62
2023/07/05 00:46:45;;;;;;;2.40;2.35;;;;;;;20.91;96.35;96790.78;4968420;28;20117;-62
2023/07/05 00:49:18;;;;;;;2.55;2.45;;;;;;;21.40;97.25;96868.31;4968449;28;20402;-62
2023/07/05 00:51:58;;;;;;;2.47;2.38;;;;;;;21.43;95.95;96867.44;4968056;28;20145;-63
2023/07/05 00:54:31;;;;;;;2.20;2.20;;;;;;;21.37;97.05;96862.78;4966060;28;20592;-62
2023/07/05 00:57:08;;;;;;;1.98;1.98;;;;;;;21.20;96.91;96831.03;4955967;28;20051;-63
2023/07/05 00:59:41;;;;;;;2.20;2.20;;;;;;;21.40;95.72;96868.31;4948264;28;20507;-62
2023/07/05 01:02:08;;;;;;;1.98;1.98;;;;;;;20.77;96.33;96771.47;4948365;28;20055;-63
2023/07/05 01:04:35;;;;;;;2.60;2.50;;;;;;;21.26;96.08;96843.34;4948644;28;20122;-63
2023/07/05 01:07:02;;;;;;;2.20;2.20;;;;;;;20.64;95.64;96748.09;4948343;28;20118;-64
2023/07/05 01:09:29;;;;;;;2.22;2.22;;;;;;;21.09;95.24;96819.28;4947966;28;20055;-62
2023/07/05 01:12:28;;;;;;;2.25;2.25;;;;;;;21.12;96.16;96851.41;4948385;28;20598;-63
2023/07/05 01:15:21;;;;;;;2.20;2.20;;;;;;;21.26;94.93;96851.78;4936213;28;20059;-62
2023/07/05 01:18:06;;;;;;;2.20;2.20;;;;;;;21.20;95.01;96856.38;4946621;29;20059;-62
2023/07/05 01:20:57;;;;;;;2.38;2.38;;;;;;;21.19;94.83;96852.00;4948149;28;20067;-62
2023/07/05 01:23:59;;;;;;;2.08;2.08;;;;;;;21.11;95.98;96855.44;4946656;28;20058;-63
2023/07/05 01:26:48;;;;;;;2.10;2.10;;;;;;;21.04;97.77;96845.16;4946829;29;20082;-63
2023/07/05 01:29:35;;;;;;;2.15;2.15;;;;;;;21.08;98.13;96840.25;4948117;28;20446;-62
2023/07/05 01:32:27;;;;;;;2.03;2.03;;;;;;;20.82;96.33;96799.88;4948123;28;20142;-65
2023/07/05 01:35:00;;;;;;;1.98;1.98;;;;;;;21.04;96.30;96833.88;4947784;28;20055;-62
2023/07/05 01:37:36;;;;;;;;;;;;;;;20.96;95.92;96832.50;4948433;28;20055;-62
2023/07/05 01:40:20;;;;;;;2.05;2.05;;;;;;;20.79;96.75;96825.28;4947825;28;20263;-62
2023/07/05 01:43:00;;;;;;;1.98;1.98;;;;;;;20.83;95.67;96834.47;4946240;29;20062;-63
2023/07/05 01:45:37;;;;;;;1.90;1.90;;;;;;;20.53;96.32;96799.03;4945533;29;20051;-62
2023/07/05 01:48:17;;;;;;;2.05;2.05;;;;;;;20.43;97.45;96788.03;4947781;28;20540;-62
2023/07/05 01:50:57;;;;;;;1.73;1.73;;;;;;;20.44;98.17;96800.88;4962126;28;20047;-62
2023/07/05 01:53:34;;;;;;;1.90;1.90;;;;;;;20.29;98.32;96785.59;4947692;29;20224;-62
2023/07/05 01:56:18;;;;;;;2.17;2.17;;;;;;;20.66;96.91;96838.53;4949760;28;20133;-63
2023/07/05 01:58:48;;;;;;;2.00;2.00;;;;;;;20.76;95.15;96835.44;4965262;28;20300;-62
2023/07/05 02:01:17;;;;;;;2.20;2.20;;;;;;;20.56;96.51;96814.25;4967037;28;20046;-62
2023/07/05 02:03:49;;;;;;;1.88;1.88;;;;;;;20.76;97.64;96840.25;4966252;28;20066;-63
2023/07/05 02:06:17;;;;;;;2.20;2.20;;;;;;;20.55;99.81;96812.69;4964834;28;20093;-63
2023/07/05 02:08:49;;;;;;;1.90;1.90;;;;;;;20.60;100.00;96831.81;4966437;28;20482;-64
2023/07/05 02:11:17;;;;;;;1.83;1.83;;;;;;;20.64;100.00;96810.03;4966740;28;20061;-64
2023/07/05 02:13:44;;;;;;;1.85;1.85;;;;;;;20.73;100.00;96830.69;4966894;28;20114;-63
2023/07/05 02:16:11;;;;;;;2.20;2.20;;;;;;;20.54;100.00;96816.72;4966699;28;20054;-64
2023/07/05 02:18:37;;;;;;;1.90;1.90;;;;;;;20.66;100.00;96807.56;4966384;28;20061;-62
2023/07/05 02:21:08;;;;;;;2.10;2.10;;;;;;;20.65;100.00;96806.75;4966425;28;20055;-63
2023/07/05 02:23:35;;;;;;;2.05;2.05;;;;;;;20.60;100.00;96795.22;4966151;28;20050;-63
2023/07/05 02:26:04;;;;;;;2.00;2.00;;;;;;;20.72;98.71;96833.94;4964943;28;20202;-63
2023/07/05 02:28:32;;;;;;;2.00;2.00;;;;;;;20.42;97.13;96789.28;4965772;28;20556;-64
2023/07/05 02:31:04;;;;;;;2.10;2.10;;;;;;;20.70;96.61;96831.56;4966103;28;20057;-64
2023/07/05 02:33:31;;;;;;;2.05;2.05;;;;;;;20.44;96.40;96779.16;4966149;28;20477;-63
2023/07/05 02:35:58;;;;;;;2.22;2.22;;;;;;;20.59;95.68;96813.38;4965959;28;20496;-62
2023/07/05 02:38:24;;;;;;;2.20;2.20;;;;;;;20.66;96.37;96832.91;4980403;28;20050;-64
2023/07/05 02:40:51;;;;;;;2.00;2.00;;;;;;;20.46;96.93;96820.94;4980391;28;20054;-62
2023/07/05 02:43:18;;;;;;;1.90;1.90;;;;;;;20.61;96.47;96839.06;4964454;28;20058;-64
2023/07/05 02:45:45;;;;;;;2.20;2.20;;;;;;;20.49;96.50;96820.06;4965760;28;20051;-63
2023/07/05 02:48:11;;;;;;;1.88;1.88;;;;;;;19.88;97.57;96771.31;4964278;28;20050;-62
2023/07/05 02:50:39;;;;;;;2.00;2.00;;;;;;;20.17;98.64;96820.84;4983759;28;20054;-62
2023/07/05 02:53:06;;;;;;;2.13;2.13;;;;;;;19.93;97.72;96765.19;4985036;28;20057;-62
2023/07/05 02:55:32;;;;;;;2.22;2.22;;;;;;;19.63;98.81;96755.03;4984161;28;20058;-62
2023/07/05 02:57:59;;;;;;;2.20;2.20;;;;;;;19.65;98.94;96760.22;4984597;28;20520;-62
2023/07/05 03:00:29;;;;;;;2.03;2.03;;;;;;;20.03;97.71;96817.56;4984761;28;20056;-63
2023/07/05 03:02:57;;;;;;;2.10;2.10;;;;;;;20.07;98.24;96833.13;4984711;28;20156;-64
2023/07/05 03:05:24;;;;;;;1.92;1.92;;;;;;;19.66;99.66;96775.84;4985043;28;20042;-62
2023/07/05 03:07:50;;;;;;;2.60;2.50;;;;;;;19.85;99.36;96797.50;4984685;28;20053;-62
2023/07/05 03:10:17;;;;;;;2.00;2.00;;;;;;;19.67;99.54;96764.16;4983333;28;20153;-63
2023/07/05 03:12:43;;;;;;;1.90;1.90;;;;;;;20.06;97.95;96808.25;4985050;28;20051;-62
2023/07/05 03:15:11;;;;;;;2.00;2.00;;;;;;;20.32;97.71;96822.09;4984772;28;20425;-63
2023/07/05 03:17:38;;;;;;;2.00;2.00;;;;;;;20.38;96.80;96814.69;4983740;28;20062;-63
2023/07/05 03:20:05;;;;;;;1.90;1.90;;;;;;;20.08;98.05;96788.91;4984776;28;20626;-63
2023/07/05 03:22:32;;;;;;;2.30;2.30;;;;;;;20.36;95.80;96785.44;4984347;28;20057;-62
2023/07/05 03:24:59;;;;;;;2.38;2.35;;;;;;;20.72;94.69;96825.50;4984500;28;20068;-62
2023/07/05 03:27:27;;;;;;;2.20;2.20;;;;;;;20.63;93.60;96802.78;4984071;28;20054;-62
2023/07/05 03:29:55;;;;;;;2.10;2.10;;;;;;;20.54;94.28;96794.19;4984580;28;20165;-62
2023/07/05 03:32:22;;;;;;;2.20;2.20;;;;;;;20.35;93.66;96775.41;4982875;28;20061;-62
2023/07/05 03:34:51;;;;;;;2.50;2.40;;;;;;;20.30;93.94;96761.84;4982673;28;20126;-61
2023/07/05 03:37:18;;;;;;;2.10;2.10;;;;;;;20.10;94.48;96735.81;4984264;28;20086;-62
2023/07/05 03:39:44;;;;;;;1.98;1.98;;;;;;;20.52;93.58;96791.03;4984389;28;20528;-63
2023/07/05 03:42:11;;;;;;;2.10;2.10;;;;;;;20.61;93.78;96822.94;4984410;28;20050;-62
2023/07/05 03:44:38;;;;;;;2.20;2.20;;;;;;;20.61;93.70;96816.53;4983801;28;20133;-62
2023/07/05 03:47:05;;;;;;;1.70;1.70;;;;;;;20.37;92.95;96761.69;4983951;28;20050;-62
2023/07/05 03:49:31;;;;;;;2.00;2.00;;;;;;;20.76;92.96;96823.38;4983840;28;20058;-62
2023/07/05 03:51:58;;;;;;;2.00;2.00;;;;;;;20.76;93.16;96817.72;4983896;28;20488;-62
2023/07/05 03:54:25;;;;;;;2.20;2.20;;;;;;;20.69;93.07;96786.97;4983867;28;20134;-62
2023/07/05 03:56:52;;;;;;;2.20;2.20;;;;;;;20.66;92.48;96785.03;4983859;28;20050;-62
2023/07/05 03:59:18;;;;;;;2.00;2.00;;;;;;;20.55;91.17;96757.16;4984212;28;20077;-63
2023/07/05 04:01:45;;;;;;;2.35;2.30;;;;;;;20.63;95.09;96802.78;4982753;28;20058;-62
2023/07/05 04:04:12;;;;;;;2.17;2.17;;;;;;;20.63;95.60;96802.78;4975743;28;20059;-63
2023/07/05 04:06:39;;;;;;;2.70;2.60;;;;;;;20.20;96.02;96724.31;4963579;28;20057;-62
2023/07/05 04:09:05;;;;;;;2.25;2.25;;;;;;;21.01;95.23;96829.16;4968575;28;20051;-62
2023/07/05 04:11:32;;;;;;;2.10;2.10;;;;;;;21.14;94.18;96792.56;4967409;28;20498;-62
2023/07/05 04:13:59;;;;;;;2.17;2.17;;;;;;;20.09;93.44;96593.63;4968690;28;20059;-62
2023/07/05 04:16:26;;;;;;;2.10;2.10;;;;;;;21.80;92.00;96824.47;4967024;28;20132;-62
2023/07/05 04:18:55;;;;;;;2.28;2.28;;;;;;;21.49;89.76;96730.34;4968033;28;20058;-62
2023/07/05 04:21:23;;;;;;;2.10;2.10;;;;;;;22.15;88.71;96817.72;4968927;28;20109;-62
2023/07/05 04:23:50;;;;;;;1.95;1.95;;;;;;;22.32;87.56;96805.06;4968678;28;20059;-64
2023/07/05 04:26:24;;;;;;;2.53;2.42;;;;;;;22.37;87.27;96810.13;4968498;28;20042;-62
2023/07/05 04:28:51;;;;;;;2.28;2.28;;;;;;;22.29;87.84;96800.31;4968314;28;20149;-62
2023/07/05 04:31:28;;;;;;;2.42;2.33;;;;;;;22.43;86.64;96782.91;4968223;28;20050;-64
2023/07/05 04:33:57;;;;;;;2.20;2.20;;;;;;;22.31;85.01;96730.09;4968279;28;20057;-62
2023/07/05 04:36:25;;;;;;;2.80;2.70;;;;;;;22.88;84.23;96790.28;4968424;28;20090;-62
2023/07/05 04:39:00;;;;;;;2.60;2.50;;;;;;;23.22;83.84;96816.47;4968296;28;20078;-62
2023/07/05 04:41:27;;;;;;;2.60;2.50;;;;;;;22.79;81.83;96731.69;4968381;28;20074;-63
2023/07/05 04:43:54;;;;;;;2.30;2.30;;;;;;;23.26;82.82;96810.72;4968186;28;20055;-62
2023/07/05 04:46:21;;;;;;;2.75;2.65;;;;;;;23.11;82.78;96789.84;4968422;28;20065;-63
2023/07/05 04:48:48;;;;;;;2.30;2.30;;;;;;;23.12;81.78;96785.78;4968100;28;20093;-62
2023/07/05 04:51:15;;;;;;;2.55;2.45;;;;;;;23.22;80.45;96771.25;4967922;28;20090;-65
2023/07/05 04:53:42;;;;;;;2.63;2.53;;;;;;;23.43;80.39;96797.97;4967969;28;20062;-64
2023/07/05 04:56:14;;;;;;;2.78;2.67;;;;;;;23.77;78.16;96817.69;4968828;28;20061;-65
2023/07/05 04:58:41;;;;;;;2.58;2.47;;;;;;;23.83;77.54;96818.66;4986804;28;20113;-65
2023/07/05 05:01:09;;;;;;;2.63;2.53;;;;;;;23.74;76.10;96802.41;4987259;28;20084;-63
2023/07/05 05:03:36;;;;;;;3.00;2.90;;;;;;;23.76;74.74;96787.78;4987308;28;20077;-63
2023/07/05 05:06:03;;;;;;;2.60;2.50;;;;;;;23.27;75.79;96702.84;4987264;28;20433;-64
2023/07/05 05:08:30;;;;;;;2.83;2.72;;;;;;;23.97;75.41;96780.53;4986813;28;20137;-64
2023/07/05 05:11:01;;;;;;;2.70;2.60;;;;;;;23.99;75.39;96784.50;4987313;28;20580;-63
2023/07/05 05:13:30;;;;;;;2.60;2.50;;;;;;;24.04;75.64;96789.56;4985678;28;20155;-64
2023/07/05 05:15:58;;;;;;;2.75;2.65;;;;;;;23.82;76.74;96785.97;4987487;28;20795;-64
2023/07/05 05:18:29;;;;;;;2.97;2.88;;;;;;;24.19;75.83;96790.53;4986177;28;20058;-65
2023/07/05 05:20:56;;;;;;;3.17;3.08;;;;;;;24.54;75.02;96813.78;4987365;28;20042;-64
2023/07/05 05:23:24;;;;;;;3.30;3.20;;;;;;;24.52;75.64;96810.63;4985499;28;20488;-64
2023/07/05 05:25:51;;;;;;;2.88;2.78;;;;;;;24.69;75.76;96820.47;4985449;28;20130;-64
2023/07/05 05:28:18;;;;;;;2.88;2.78;;;;;;;24.87;74.90;96778.78;4985388;28;20056;-64
2023/07/05 05:30:45;;;;;;;2.90;2.80;;;;;;;25.28;73.94;96789.50;4986642;28;20056;-64
2023/07/05 05:33:15;;;;;;;2.83;2.72;;;;;;;25.64;73.37;96799.28;4968649;28;20129;-65
2023/07/05 05:35:50;;;;;;;3.30;3.20;;;;;;;25.85;70.72;96801.09;4966467;28;20480;-65
2023/07/05 05:38:18;;;;;;;3.10;3.00;;;;;;;26.03;68.56;96793.38;4966317;28;20133;-64
2023/07/05 05:40:50;;;;;;;3.15;3.05;;;;;;;25.87;68.84;96790.06;4953807;28;20061;-63
2023/07/05 05:43:18;;;;;;;3.35;3.25;;;;;;;26.28;69.00;96792.94;4946823;28;20059;-62
2023/07/05 05:45:45;;;;;;;3.45;3.35;;;;;;;26.46;69.20;96797.75;4947117;28;20628;-62
2023/07/05 05:48:12;;;;;;;3.45;3.35;;;;;;;26.71;68.31;96791.63;4957741;28;20050;-62
2023/07/05 05:50:38;;;;;;;3.83;3.72;;;;;;;27.01;66.93;96781.97;4966923;28;20046;-65
2023/07/05 05:53:05;;;;;;;4.13;4.03;;;;;;;26.84;64.78;96715.44;4966958;28;20125;-61
2023/07/05 05:55:32;;;;;;;3.90;3.80;;;;;;;27.54;63.73;96791.31;4962772;28;20076;-66
2023/07/05 05:57:59;;;;;;;3.95;3.85;;;;;;;27.63;65.63;96788.38;4985310;28;20108;-63
2023/07/05 06:00:26;;;;;;;4.25;4.15;;;;;;;27.77;65.14;96787.59;4986113;28;20050;-62
2023/07/05 06:02:53;;;;;;;3.85;3.75;;;;;;;28.16;63.92;96779.75;4986208;28;20433;-64
2023/07/05 06:05:20;;;;;;;3.70;3.60;;;;;;;28.72;61.79;96775.72;4985941;28;20054;-62
2023/07/05 06:07:47;;;;;;;4.32;4.22;;;;;;;28.72;58.40;96730.09;4984116;28;20547;-62
2023/07/05 06:10:14;;;;;;;3.95;3.85;;;;;;;29.22;58.62;96780.03;4984259;28;20047;-63
2023/07/05 06:12:43;;;;;;;4.18;4.07;;;;;;;29.14;57.87;96756.88;4984566;28;20614;-61
2023/07/05 06:15:12;;;;;;;4.20;4.10;;;;;;;29.25;58.01;96781.91;4985923;28;20060;-61
2023/07/05 06:17:41;;;;;;;4.30;4.20;;;;;;;28.81;58.70;96749.91;4985616;28;20057;-66
2023/07/05 06:20:10;;;;;;;4.03;3.92;;;;;;;28.40;59.96;96759.66;4985634;28;20125;-63
2023/07/05 06:22:38;;;;;;;3.92;3.83;;;;;;;27.85;62.38;96743.22;4984048;28;20060;-64
2023/07/05 06:25:05;;;;;;;4.20;4.10;;;;;;;28.01;60.78;96728.50;4965640;28;20130;-62
2023/07/05 06:27:33;;;;;;;4.05;3.95;;;;;;;28.46;59.44;96780.47;4965939;28;20047;-62
2023/07/05 06:30:00;;;;;;;3.60;3.50;;;;;;;27.07;60.02;96569.56;4966287;28;20046;-63
2023/07/05 06:32:27;;;;;;;3.90;3.80;;;;;;;28.32;60.43;96732.88;4957150;28;20116;-68
2023/07/05 06:34:54;;;;;;;4.38;4.28;;;;;;;27.89;61.84;96649.88;4980594;28;20148;-63
2023/07/05 06:37:20;;;;;;;4.15;4.05;;;;;;;28.51;61.57;96714.25;4965784;28;20547;-61
2023/07/05 06:39:47;;;;;;;3.83;3.72;;;;;;;28.96;62.54;96739.25;4964791;28;20134;-63
2023/07/05 06:42:14;;;;;;;4.40;4.30;;;;;;;28.57;62.16;96664.59;4965085;28;20046;-64
2023/07/05 06:44:41;;;;;;;4.00;3.90;;;;;;;29.20;61.55;96714.13;4964550;28;20436;-64
2023/07/05 06:47:08;;;;;;;4.10;4.00;;;;;;;29.50;60.45;96726.91;4953572;28;20090;-64
2023/07/05 06:49:34;;;;;;;4.75;4.65;;;;;;;29.42;59.03;96688.66;4945542;28;20065;-65
2023/07/05 06:52:01;;;;;;;4.07;3.97;;;;;;;30.08;59.31;96757.84;4945528;28;20051;-64
2023/07/05 06:54:28;;;;;;;4.32;4.22;;;;;;;28.96;58.17;96579.50;4945816;28;20534;-64
2023/07/05 06:56:55;;;;;;;4.47;4.38;;;;;;;30.13;58.46;96756.34;4947357;28;20444;-63
2023/07/05 06:59:22;;;;;;;4.32;4.22;;;;;;;29.95;57.66;96686.06;4964161;28;20134;-65
2023/07/05 07:01:49;;;;;;;4.57;4.47;;;;;;;30.27;56.59;96689.72;4965203;28;20054;-62
2023/07/05 07:04:16;;;;;;;4.07;3.97;;;;;;;30.64;56.49;96759.88;4965617;28;20300;-68
2023/07/05 07:06:42;;;;;;;4.28;4.18;;;;;;;30.48;56.45;96731.94;4963508;28;20146;-64
2023/07/05 07:09:12;;;;;;;4.75;4.65;;;;;;;30.71;55.58;96739.34;4965177;28;20051;-66
2023/07/05 07:11:39;;;;;;;4.72;4.63;;;;;;;30.91;55.14;96764.22;4965818;28;20050;-68
2023/07/05 07:14:05;;;;;;;4.70;4.60;;;;;;;29.89;54.96;96575.91;4965247;28;20047;-70
2023/07/05 07:16:33;;;;;;;4.30;4.20;;;;;;;31.15;53.60;96733.09;4965121;28;20076;-64
2023/07/05 07:19:00;;;;;;;4.60;4.50;;;;;;;31.16;54.37;96733.91;4964996;28;20133;-71
2023/07/05 07:21:26;;;;;;;4.70;4.60;;;;;;;30.53;52.23;96631.13;4963693;28;20521;-63
2023/07/05 07:23:53;;;;;;;4.63;4.53;;;;;;;31.07;52.92;96696.88;4965025;28;20062;-64
2023/07/05 07:26:22;;;;;;;4.32;4.22;;;;;;;31.30;53.21;96756.59;4965576;28;20455;-63
2023/07/05 07:28:52;;;;;;;4.80;4.70;;;;;;;31.08;51.25;96735.69;4965295;28;20423;-62
2023/07/05 07:31:31;;;;;;;5.13;5.03;;;;;;;31.21;52.08;96748.22;4959294;28;20047;-65
2023/07/05 07:34:02;;;;;;;4.85;4.75;;;;;;;30.13;51.70;96588.50;4948701;28;20421;-65
2023/07/05 07:36:30;;;;;;;4.38;4.28;;;;;;;31.12;50.79;96739.84;4964401;28;20078;-68
2023/07/05 07:38:58;;;;;;;4.22;4.13;;;;;;;30.71;50.65;96745.06;4950287;28;20157;-67
2023/07/05 07:41:28;;;;;;;4.78;4.68;;;;;;;30.94;50.53;96752.53;4945957;28;20146;-63
2023/07/05 07:44:00;;;;;;;4.28;4.18;;;;;;;31.12;50.41;96750.50;4945208;29;20043;-63
2023/07/05 07:46:28;;;;;;;4.70;4.60;;;;;;;30.64;51.03;96670.41;4944938;28;20047;-62
2023/07/05 07:48:58;;;;;;;4.72;4.63;;;;;;;29.79;50.43;96565.97;4945660;28;20400;-67
2023/07/05 07:51:28;;;;;;;4.13;4.03;;;;;;;30.84;50.83;96716.06;4946185;29;20051;-65
2023/07/05 07:54:08;;;;;;;4.60;4.50;;;;;;;30.77;51.56;96725.91;4945798;28;20062;-68
2023/07/05 07:56:35;;;;;;;4.28;4.18;;;;;;;31.06;52.27;96727.59;4944205;29;20422;-64
2023/07/05 07:59:06;;;;;;;4.72;4.63;;;;;;;31.36;51.34;96705.09;4964231;28;20043;-75
2023/07/05 08:01:37;;;;;;;4.53;4.43;;;;;;;31.84;50.68;96737.22;4963148;28;20473;-63
2023/07/05 08:04:07;;;;;;;4.78;4.68;;;;;;;31.58;50.42;96667.91;4964642;28;20232;-61
2023/07/05 08:06:38;;;;;;;4.95;4.85;;;;;;;32.07;50.65;96738.81;4962938;28;20067;-64
2023/07/05 08:09:07;;;;;;;4.82;4.72;;;;;;;32.18;49.58;96744.53;4964040;28;20452;-71
2023/07/05 08:11:35;;;;;;;4.22;4.13;;;;;;;32.16;49.92;96741.41;4962585;28;20082;-68
2023/07/05 08:14:01;;;;;;;4.35;4.25;;;;;;;32.40;50.42;96727.34;4962249;28;20057;-63
2023/07/05 08:16:28;;;;;;;4.45;4.35;;;;;;;32.09;50.05;96690.34;4944793;28;20063;-62
2023/07/05 08:18:57;;;;;;;4.60;4.50;;;;;;;32.33;49.43;96717.16;4943812;29;20047;-74
2023/07/05 08:21:24;;;;;;;5.10;5.00;;;;;;;32.45;48.22;96738.03;4945173;28;20137;-62
2023/07/05 08:23:50;;;;;;;4.93;4.82;;;;;;;31.92;49.06;96647.34;4945281;28;20118;-72
2023/07/05 08:26:17;;;;;;;4.35;4.25;;;;;;;32.06;49.47;96648.38;4943450;29;20057;-63
2023/07/05 08:28:45;;;;;;;4.10;4.00;;;;;;;32.88;47.68;96742.13;4945174;28;20227;-64
2023/07/05 08:31:12;;;;;;;4.93;4.82;;;;;;;32.33;48.57;96705.69;4943669;29;20110;-63
2023/07/05 08:33:40;;;;;;;4.50;4.40;;;;;;;32.74;49.03;96733.81;4944097;28;20051;-63
2023/07/05 08:36:09;;;;;;;4.88;4.78;;;;;;;32.26;48.20;96682.50;4945029;28;20450;-73
2023/07/05 08:38:56;;;;;;;4.90;4.80;;;;;;;31.83;49.88;96702.03;4944685;28;20052;-70
2023/07/05 08:41:44;;;;;;;4.60;4.50;;;;;;;32.15;49.93;96734.88;4945184;28;20069;-72
2023/07/05 08:44:29;;;;;;;4.68;4.57;;;;;;;32.41;51.04;96728.91;4945162;28;20102;-63
2023/07/05 08:47:12;;;;;;;4.40;4.30;;;;;;;32.69;48.84;96732.50;4943723;28;20055;-73
2023/07/05 08:49:47;;;;;;;4.75;4.65;;;;;;;32.91;48.77;96725.97;4943708;29;20146;-70
2023/07/05 08:52:24;;;;;;;4.60;4.50;;;;;;;33.16;47.48;96725.59;4943689;29;20051;-62
2023/07/05 08:54:57;;;;;;;5.05;4.95;;;;;;;33.42;48.46;96717.41;4947669;28;20144;-70
2023/07/05 08:57:31;;;;;;;5.07;4.97;;;;;;;33.61;47.25;96692.47;4952060;28;20580;-70
2023/07/05 09:00:05;;;;;;;4.72;4.63;;;;;;;33.89;46.82;96711.59;4968333;28;20076;-62
2023/07/05 09:02:32;;;;;;;5.00;4.90;;;;;;;34.23;45.49;96701.41;4967516;28;20444;-62
2023/07/05 09:04:59;;;;;;;4.85;4.75;;;;;;;34.38;44.94;96724.81;4967550;28;20150;-64
2023/07/05 09:08:06;;;;;;;4.43;4.32;;;;;;;33.40;46.10;96717.13;4968016;28;20055;-70
2023/07/05 09:10:45;;;;;;;4.70;4.60;;;;;;;33.66;46.49;96683.03;4975584;28;20066;-65
2023/07/05 09:13:34;;;;;;;4.80;4.70;;;;;;;34.00;44.96;96705.81;4967479;28;20065;-62
2023/07/05 09:16:06;;;;;;;5.10;5.00;;;;;;;34.27;44.05;96708.44;4967070;28;20128;-70
2023/07/05 09:19:05;;;;;;;4.88;4.78;;;;;;;33.88;43.04;96693.56;4967869;28;20051;-71
2023/07/05 09:21:39;;;;;;;4.70;4.60;;;;;;;32.83;46.17;96682.66;4965607;28;20059;-62
2023/07/05 09:24:15;;;;;;;4.97;4.88;;;;;;;33.73;45.66;96698.94;4969008;28;20059;-69
2023/07/05 09:26:49;;;;;;;5.38;5.28;;;;;;;34.14;44.56;96681.63;4966394;28;20063;-63
2023/07/05 09:29:34;;;;;;;5.18;5.07;;;;;;;34.69;44.07;96699.16;4965370;28;20501;-72
2023/07/05 09:32:07;;;;;;;5.63;5.45;;;;;;;33.98;44.04;96691.16;4966531;28;20102;-63
2023/07/05 09:35:04;;;;;;;4.82;4.72;;;;;;;34.10;44.89;96695.53;4966606;28;20089;-70
2023/07/05 09:37:36;;;;;;;4.72;4.63;;;;;;;33.68;44.56;96668.91;4966376;28;20054;-71
2023/07/05 09:40:16;;;;;;;5.10;5.00;;;;;;;33.45;43.42;96683.97;4966623;28;20046;-70
2023/07/05 09:42:59;;;;;;;4.80;4.70;;;;;;;33.05;45.51;96633.78;4964952;28;20058;-62
2023/07/05 09:45:26;;;;;;;4.97;4.88;;;;;;;32.29;45.98;96632.72;4965112;28;20141;-63
2023/07/05 09:48:06;;;;;;;4.38;4.28;;;;;;;31.93;48.13;96640.31;4966318;28;20439;-64
2023/07/05 09:50:33;;;;;;;4.30;4.20;;;;;;;32.19;47.32;96671.56;4967022;28;20532;-72
2023/07/05 09:53:21;;;;;;;4.72;4.63;;;;;;;33.08;45.83;96663.50;4966415;28;20046;-69
2023/07/05 09:56:05;;;;;;;4.75;4.65;;;;;;;33.23;44.34;96684.81;4966703;28;20054;-69
2023/07/05 09:58:33;;;;;;;4.35;4.25;;;;;;;31.26;48.46;96598.59;4965238;28;20057;-69
2023/07/05 10:01:02;;;;;;;4.32;4.22;;;;;;;31.75;45.64;96594.19;4966390;28;20047;-61
2023/07/05 10:03:34;;;;;;;4.43;4.32;;;;;;;31.70;46.85;96675.19;4951178;28;20051;-70
2023/07/05 10:06:07;;;;;;;4.68;4.57;;;;;;;32.16;47.89;96641.06;4946655;28;20486;-61
2023/07/05 10:08:50;;;;;;;4.53;4.43;;;;;;;33.11;46.17;96631.66;4947465;28;20117;-62
2023/07/05 10:11:28;;;;;;;4.95;4.85;;;;;;;33.45;46.46;96667.50;4946736;28;20427;-70
2023/07/05 10:14:07;;;;;;;4.85;4.75;;;;;;;33.69;45.83;96681.16;4946919;28;20050;-70
2023/07/05 10:16:55;;;;;;;4.82;4.72;;;;;;;33.26;45.77;96678.03;4947351;28;20434;-61
2023/07/05 10:19:28;;;;;;;4.70;4.60;;;;;;;32.99;47.88;96612.91;4947423;28;20062;-61
2023/07/05 10:22:14;;;;;;;4.75;4.65;;;;;;;33.94;46.93;96673.44;4947515;28;20112;-70
2023/07/05 10:24:47;;;;;;;4.77;4.67;;;;;;;33.75;47.28;96633.84;4946900;28;20062;-63
2023/07/05 10:27:34;;;;;;;;;;;;;;;34.30;46.12;96683.56;4947718;28;20086;-61
2023/07/05 10:30:07;;;;;;;5.45;5.32;;;;;;;34.22;47.21;96683.38;4946826;28;20401;-70
2023/07/05 10:32:36;;;;;;;4.95;4.85;;;;;;;33.91;47.45;96691.78;4946504;28;20133;-63
2023/07/05 10:35:23;;;;;;;5.03;4.93;;;;;;;32.66;48.54;96647.47;4946738;28;20067;-64
2023/07/05 10:37:51;;;;;;;5.07;4.97;;;;;;;33.61;48.48;96669.47;4946987;28;20634;-62
2023/07/05 10:40:19;;;;;;;4.90;4.80;;;;;;;34.23;48.21;96689.91;4946395;28;20459;-69
2023/07/05 10:43:00;;;;;;;4.43;4.32;;;;;;;34.35;46.95;96659.72;4946534;28;20505;-70
2023/07/05 10:45:34;;;;;;;5.75;5.55;;;;;;;34.61;46.52;96665.75;4946853;28;20438;-63
2023/07/05 10:48:01;;;;;;;5.13;5.03;;;;;;;34.64;45.32;96679.06;4946526;28;20491;-69
2023/07/05 10:50:37;;;;;;;5.13;5.03;;;;;;;34.51;45.36;96681.84;4945197;28;20065;-62
2023/07/05 10:53:10;;;;;;;4.85;4.75;;;;;;;33.93;44.68;96589.28;4945076;29;20142;-62
2023/07/05 10:55:52;;;;;;;;;;;;;;;34.83;43.68;96685.63;4945998;29;20059;-62
2023/07/05 10:58:21;;;;;;;4.93;4.82;;;;;;;34.15;45.33;96655.22;4955882;28;19926;-63
2023/07/05 11:01:01;;;;;;;4.50;4.40;;;;;;;34.16;45.33;96604.22;4965542;28;20059;-69
2023/07/05 11:03:42;;;;;;;4.97;4.88;;;;;;;35.35;45.53;96674.50;4963529;28;20057;-62
2023/07/05 11:06:11;;;;;;;5.28;5.18;;;;;;;34.88;45.28;96670.44;4964167;28;20065;-70
2023/07/05 11:08:40;;;;;;;4.70;4.60;;;;;;;34.81;44.80;96614.22;4965512;28;20059;-64
2023/07/05 11:11:19;;;;;;;5.72;5.53;;;;;;;34.85;44.98;96654.22;4947111;28;20081;-62
2023/07/05 11:13:48;;;;;;;4.82;4.72;;;;;;;34.71;44.73;96655.44;4945897;28;20055;-63
2023/07/05 11:16:27;;;;;;;5.15;5.05;;;;;;;34.07;45.85;96653.44;4945572;28;20083;-70
2023/07/05 11:19:00;;;;;;;4.80;4.70;;;;;;;33.75;46.68;96644.53;4945936;29;20514;-70
2023/07/05 11:21:39;;;;;;;4.78;4.68;;;;;;;32.19;50.87;96637.16;4945837;28;20070;-65
2023/07/05 11:24:08;;;;;;;4.65;4.55;;;;;;;31.19;52.87;96626.94;4945005;28;20509;-62
2023/07/05 11:26:37;;;;;;;4.28;4.18;;;;;;;30.87;52.58;96655.72;4943890;28;20062;-69
2023/07/05 11:29:26;;;;;;;4.38;4.28;;;;;;;31.06;51.35;96666.72;4944626;29;20438;-69
2023/07/05 11:31:53;;;;;;;4.60;4.50;;;;;;;30.39;52.03;96672.13;4948070;28;20054;-63
2023/07/05 11:34:25;;;;;;;4.10;4.00;;;;;;;29.99;53.75;96678.03;4960797;28;20058;-67
2023/07/05 11:37:14;;;;;;;4.43;4.32;;;;;;;29.71;54.64;96665.63;4965340;28;20053;-63
2023/07/05 11:39:42;;;;;;;4.13;4.03;;;;;;;29.15;56.86;96612.16;4964926;28;20058;-65
2023/07/05 11:42:12;;;;;;;4.38;4.28;;;;;;;29.54;58.04;96670.38;4942993;28;20078;-64
2023/07/05 11:44:41;;;;;;;4.13;4.03;;;;;;;29.28;57.74;96643.91;4945568;28;20074;-63
2023/07/05 11:47:10;;;;;;;4.22;4.13;;;;;;;29.14;58.05;96659.06;4945299;28;20533;-64
2023/07/05 11:49:41;;;;;;;4.28;4.18;;;;;;;28.99;59.11;96664.06;4945160;29;20052;-67
2023/07/05 11:52:24;;;;;;;4.00;3.90;;;;;;;28.75;59.10;96689.19;4945314;29;20061;-66